createdAt,value
2018-04-10T00:02:02.903Z,77.00
2018-04-10T00:04:30.462Z,77.00
2018-04-10T00:06:58.042Z,77.10
2018-04-10T00:09:25.912Z,76.90
2018-04-10T00:11:53.711Z,76.90
2018-04-10T00:14:21.252Z,76.50
2018-04-10T00:16:48.804Z,77.20
2018-04-10T00:19:16.317Z,77.70
2018-04-10T00:21:43.847Z,76.70
2018-04-10T00:24:11.430Z,77.10
2018-04-10T00:26:39.016Z,77.30
2018-04-10T00:29:06.637Z,77.60
2018-04-10T00:31:34.448Z,77.50
2018-04-10T00:34:02.155Z,78.70
2018-04-10T00:36:29.923Z,77.60
2018-04-10T00:38:57.574Z,77.30
2018-04-10T00:41:25.145Z,77.40
2018-04-10T00:43:52.996Z,77.40
2018-04-10T00:46:22.036Z,77.40
2018-04-10T00:48:50.352Z,77.60
2018-04-10T00:51:17.879Z,77.50
2018-04-10T00:53:45.661Z,77.30
2018-04-10T00:56:13.209Z,77.50
2018-04-10T00:58:40.959Z,77.50
2018-04-10T01:01:09.351Z,78.00
2018-04-10T01:03:36.990Z,77.90
2018-04-10T01:06:04.543Z,78.30
2018-04-10T01:08:32.088Z,78.40
2018-04-10T01:11:01.167Z,79.20
2018-04-10T01:13:28.741Z,79.10
2018-04-10T01:15:56.361Z,79.20
2018-04-10T01:18:23.917Z,79.10
2018-04-10T01:20:51.465Z,79.40
2018-04-10T01:23:19.071Z,79.50
2018-04-10T01:25:47.382Z,79.30
2018-04-10T01:28:15.709Z,79.80
2018-04-10T01:30:43.303Z,79.00
2018-04-10T01:33:10.883Z,78.80
2018-04-10T01:35:39.181Z,78.80
2018-04-10T01:38:06.759Z,79.40
2018-04-10T01:40:34.307Z,79.00
2018-04-10T01:43:01.819Z,78.80
2018-04-10T01:45:29.355Z,77.80
2018-04-10T01:47:56.924Z,78.60
2018-04-10T01:50:24.463Z,78.90
2018-04-10T01:52:52.022Z,78.10
2018-04-10T01:55:19.586Z,77.20
2018-04-10T01:57:47.172Z,76.40
2018-04-10T02:00:14.807Z,76.10
2018-04-10T02:02:42.345Z,75.20
2018-04-10T02:05:09.901Z,76.00
2018-04-10T02:07:37.464Z,76.70
2018-04-10T02:10:22.540Z,77.60
2018-04-10T02:15:23.850Z,76.00
2018-04-10T02:17:51.391Z,75.90
2018-04-10T02:20:19.496Z,75.00
2018-04-10T02:22:47.795Z,74.10
2018-04-10T02:25:15.357Z,74.10
2018-04-10T02:27:42.924Z,74.30
2018-04-10T02:30:10.458Z,74.50
2018-04-10T02:32:39.961Z,75.90
2018-04-10T02:35:07.558Z,75.90
2018-04-10T02:37:35.165Z,76.70
2018-04-10T02:40:02.685Z,77.10
2018-04-10T02:42:30.209Z,77.50
2018-04-10T02:44:57.759Z,78.10
2018-04-10T02:47:26.063Z,78.90
2018-04-10T02:49:53.642Z,78.90
2018-04-10T02:52:21.182Z,79.50
2018-04-10T02:54:49.533Z,80.50
2018-04-10T02:57:17.847Z,81.70
2018-04-10T02:59:45.453Z,81.70
2018-04-10T03:02:12.992Z,82.00
2018-04-10T03:04:40.545Z,81.90
2018-04-10T03:07:08.123Z,82.10
2018-04-10T03:09:35.687Z,81.70
2018-04-10T03:12:03.991Z,80.60
2018-04-10T03:14:31.526Z,80.60
2018-04-10T03:16:59.090Z,80.30
2018-04-10T03:19:26.622Z,80.20
2018-04-10T03:21:54.344Z,79.80
2018-04-10T03:24:21.891Z,79.70
2018-04-10T03:26:49.447Z,79.70
2018-04-10T03:29:16.966Z,79.30
2018-04-10T03:31:44.478Z,79.20
2018-04-10T03:34:12.035Z,79.30
2018-04-10T03:36:39.627Z,80.10
2018-04-10T03:39:07.869Z,80.30
2018-04-10T03:41:35.883Z,80.70
2018-04-10T03:44:03.667Z,80.60
2018-04-10T03:46:38.093Z,80.60
2018-04-10T03:49:08.625Z,80.50
2018-04-10T03:51:36.247Z,80.50
2018-04-10T03:54:03.824Z,80.40
2018-04-10T03:56:33.054Z,80.10
2018-04-10T03:59:00.594Z,80.10
2018-04-10T04:01:28.719Z,80.50
2018-04-10T04:03:56.264Z,80.60
2018-04-10T04:06:23.795Z,80.10
2018-04-10T04:08:52.140Z,79.60
2018-04-10T04:11:19.653Z,79.60
2018-04-10T04:13:47.195Z,79.00
2018-04-10T04:16:26.607Z,78.30
2018-04-10T04:19:06.095Z,78.20
2018-04-10T04:21:45.549Z,78.30
2018-04-10T04:24:13.075Z,78.10
2018-04-10T04:26:40.643Z,77.70
2018-04-10T04:29:08.232Z,77.50
2018-04-10T04:31:35.859Z,76.70
2018-04-10T04:34:03.413Z,76.20
2018-04-10T04:36:30.957Z,76.30
2018-04-10T04:38:59.283Z,76.60
2018-04-10T04:41:26.839Z,76.50
2018-04-10T04:43:54.488Z,77.30
2018-04-10T04:46:22.020Z,76.90
2018-04-10T04:48:49.607Z,76.20
2018-04-10T04:51:17.166Z,76.30
2018-04-10T04:53:44.708Z,76.40
2018-04-10T04:56:12.287Z,76.60
2018-04-10T04:58:39.859Z,76.60
2018-04-10T05:01:07.419Z,77.40
2018-04-10T05:03:34.954Z,77.60
2018-04-10T05:06:02.498Z,77.80
2018-04-10T05:08:30.032Z,77.90
2018-04-10T05:10:58.348Z,78.10
2018-04-10T05:13:25.950Z,78.00
2018-04-10T05:15:53.491Z,77.60
2018-04-10T05:18:21.035Z,77.10
2018-04-10T05:20:48.557Z,76.20
2018-04-10T05:23:16.217Z,74.60
2018-04-10T05:25:44.541Z,72.40
2018-04-10T05:28:12.092Z,72.30
2018-04-10T05:30:39.647Z,71.20
2018-04-10T05:33:07.185Z,70.50
2018-04-10T05:35:34.781Z,69.70
2018-04-10T05:38:02.386Z,69.10
2018-04-10T05:40:29.925Z,66.50
2018-04-10T05:42:57.477Z,66.00
2018-04-10T05:45:25.060Z,66.60
2018-04-10T05:47:53.379Z,66.20
2018-04-10T05:50:21.803Z,66.20
2018-04-10T05:52:49.384Z,65.90
2018-04-10T05:55:17.691Z,63.30
2018-04-10T05:57:45.315Z,63.30
2018-04-10T06:00:13.644Z,62.10
2018-04-10T06:02:41.181Z,62.00
2018-04-10T06:05:08.725Z,61.80
2018-04-10T06:07:36.294Z,60.80
2018-04-10T06:10:03.830Z,60.10
2018-04-10T06:12:31.389Z,59.40
2018-04-10T06:14:59.721Z,57.50
2018-04-10T06:17:28.024Z,55.00
2018-04-10T06:19:56.503Z,54.80
2018-04-10T06:22:24.082Z,53.30
2018-04-10T06:24:51.664Z,51.70
2018-04-10T06:27:19.249Z,50.10
2018-04-10T06:29:46.789Z,49.40
2018-04-10T06:32:14.311Z,49.40
2018-04-10T06:34:42.636Z,50.30
2018-04-10T06:37:10.176Z,50.30
2018-04-10T06:39:37.719Z,50.80
2018-04-10T06:42:05.233Z,51.20
2018-04-10T06:44:32.791Z,50.70
2018-04-10T06:47:00.387Z,50.80
2018-04-10T06:49:28.007Z,50.30
2018-04-10T06:51:56.281Z,49.50
2018-04-10T06:54:24.629Z,47.80
2018-04-10T06:56:52.191Z,47.70
2018-04-10T06:59:19.786Z,47.30
2018-04-10T07:01:47.353Z,45.90
2018-04-10T07:04:15.743Z,47.50
2018-04-10T07:06:43.373Z,47.20
2018-04-10T07:09:11.142Z,48.10
2018-04-10T07:11:38.735Z,47.60
2018-04-10T07:14:06.286Z,48.40
2018-04-10T07:16:34.612Z,49.40
2018-04-10T07:19:02.162Z,49.30
2018-04-10T07:21:29.712Z,49.30
2018-04-10T07:23:57.238Z,49.10
2018-04-10T07:26:24.853Z,47.50
2018-04-10T07:28:52.444Z,46.10
2018-04-10T07:31:19.973Z,45.70
2018-04-10T07:33:47.533Z,46.40
2018-04-10T07:36:15.101Z,45.40
2018-04-10T07:38:42.661Z,44.80
2018-04-10T07:41:10.196Z,44.40
2018-04-10T07:43:37.779Z,44.60
2018-04-10T07:46:05.343Z,46.40
2018-04-10T07:48:32.906Z,46.90
2018-04-10T07:51:00.437Z,46.00
2018-04-10T07:53:27.997Z,45.60
2018-04-10T07:55:55.540Z,45.70
2018-04-10T07:58:23.083Z,44.20
2018-04-10T08:00:51.487Z,43.30
2018-04-10T08:03:19.072Z,43.30
2018-04-10T08:05:46.616Z,42.30
2018-04-10T08:08:14.157Z,43.00
2018-04-10T08:10:41.829Z,43.90
2018-04-10T08:13:09.377Z,43.50
2018-04-10T08:15:36.966Z,43.30
2018-04-10T08:18:04.492Z,42.90
2018-04-10T08:20:32.099Z,41.80
2018-04-10T08:22:59.681Z,41.50
2018-04-10T08:25:28.042Z,40.20
2018-04-10T08:27:55.611Z,40.20
2018-04-10T08:30:23.174Z,40.40
2018-04-10T08:32:50.760Z,39.90
2018-04-10T08:35:18.363Z,39.40
2018-04-10T08:37:45.953Z,40.10
2018-04-10T08:40:13.481Z,41.70
2018-04-10T08:42:41.057Z,41.70
2018-04-10T08:45:08.647Z,41.90
2018-04-10T08:47:37.139Z,41.10
2018-04-10T08:50:04.680Z,41.10
2018-04-10T08:52:32.996Z,42.50
2018-04-10T08:55:00.553Z,42.50
2018-04-10T08:57:28.161Z,41.10
2018-04-10T08:59:55.711Z,41.70
2018-04-10T09:02:23.274Z,43.90
2018-04-10T09:04:50.816Z,45.60
2018-04-10T09:07:18.410Z,45.20
2018-04-10T09:09:46.001Z,44.90
2018-04-10T09:12:13.687Z,44.70
2018-04-10T09:14:41.259Z,45.40
2018-04-10T09:17:09.533Z,45.50
2018-04-10T09:19:37.113Z,46.40
2018-04-10T09:22:04.677Z,46.90
2018-04-10T09:24:32.230Z,47.50
2018-04-10T09:26:59.804Z,47.90
2018-04-10T09:29:28.187Z,47.70
2018-04-10T09:31:56.518Z,47.80
2018-04-10T09:34:24.107Z,47.70
2018-04-10T09:36:51.689Z,47.70
2018-04-10T09:39:19.234Z,48.30
2018-04-10T09:41:46.792Z,48.50
2018-04-10T09:44:15.254Z,47.70
2018-04-10T09:46:42.803Z,47.70
2018-04-10T09:49:10.365Z,48.10
2018-04-10T09:51:37.930Z,47.80
2018-04-10T09:54:05.548Z,47.80
2018-04-10T09:56:33.068Z,48.70
2018-04-10T09:59:00.683Z,50.40
2018-04-10T10:01:28.267Z,50.20
2018-04-10T10:03:56.665Z,49.30
2018-04-10T10:06:24.192Z,47.70
2018-04-10T10:08:51.789Z,46.40
2018-04-10T10:11:19.352Z,44.90
2018-04-10T10:13:46.959Z,44.40
2018-04-10T10:16:14.527Z,42.70
2018-04-10T10:18:42.113Z,42.00
2018-04-10T10:21:09.728Z,42.00
2018-04-10T10:23:37.276Z,44.60
2018-04-10T10:26:04.839Z,42.70
2018-04-10T10:28:32.392Z,45.40
2018-04-10T10:31:00.001Z,44.40
2018-04-10T10:33:27.591Z,44.80
2018-04-10T10:35:55.902Z,44.70
2018-04-10T10:38:23.456Z,44.00
2018-04-10T10:40:51.003Z,44.30
2018-04-10T10:43:18.568Z,44.60
2018-04-10T10:45:46.110Z,43.30
2018-04-10T10:48:13.732Z,43.90
2018-04-10T10:50:42.077Z,43.70
2018-04-10T10:53:09.613Z,43.60
2018-04-10T10:55:37.161Z,43.40
2018-04-10T10:58:04.710Z,47.00
2018-04-10T11:00:33.044Z,47.60
2018-04-10T11:03:00.588Z,47.40
2018-04-10T11:05:28.132Z,46.90
2018-04-10T11:07:55.688Z,45.40
2018-04-10T11:10:23.327Z,44.90
2018-04-10T11:12:50.963Z,45.30
2018-04-10T11:15:18.590Z,45.20
2018-04-10T11:17:46.185Z,44.00
2018-04-10T11:20:13.796Z,43.50
2018-04-10T11:22:41.360Z,43.70
2018-04-10T11:25:08.888Z,44.10
2018-04-10T11:27:37.216Z,44.90
2018-04-10T11:30:04.807Z,44.90
2018-04-10T11:32:32.383Z,44.80
2018-04-10T11:35:00.709Z,44.10
2018-04-10T11:37:28.275Z,43.40
2018-04-10T11:39:55.886Z,44.70
2018-04-10T11:42:24.214Z,45.10
2018-04-10T11:44:51.751Z,45.10
2018-04-10T11:47:19.420Z,44.70
2018-04-10T11:49:46.973Z,45.00
2018-04-10T11:52:14.524Z,44.80
2018-04-10T11:54:42.121Z,44.50
2018-04-10T11:57:09.642Z,43.80
2018-04-10T11:59:38.159Z,43.50
2018-04-10T12:02:05.756Z,44.30
2018-04-10T12:04:33.359Z,44.70
2018-04-10T12:07:00.991Z,44.50
2018-04-10T12:09:29.306Z,48.40
2018-04-10T12:11:56.898Z,48.40
2018-04-10T12:14:24.461Z,48.80
2018-04-10T12:16:52.015Z,49.30
2018-04-10T12:19:19.544Z,49.60
2018-04-10T12:21:47.111Z,48.80
2018-04-10T12:24:14.670Z,47.80
2018-04-10T12:26:42.217Z,48.00
2018-04-10T12:29:09.773Z,47.10
2018-04-10T12:31:37.410Z,47.80
2018-04-10T12:34:05.013Z,47.70
2018-04-10T12:36:32.587Z,48.80
2018-04-10T12:39:00.174Z,49.50
2018-04-10T12:41:27.723Z,50.50
2018-04-10T12:43:55.358Z,50.60
2018-04-10T12:46:22.966Z,51.20
2018-04-10T12:48:50.628Z,51.40
2018-04-10T12:51:18.212Z,51.20
2018-04-10T12:53:45.749Z,52.00
2018-04-10T12:56:13.311Z,51.70
2018-04-10T12:58:40.841Z,51.50
2018-04-10T13:01:08.397Z,52.00
2018-04-10T13:03:36.268Z,52.00
2018-04-10T13:06:04.727Z,52.40
2018-04-10T13:08:32.328Z,52.30
2018-04-10T13:10:59.911Z,52.50
2018-04-10T13:13:27.449Z,52.20
2018-04-10T13:15:54.989Z,52.20
2018-04-10T13:18:23.323Z,52.20
2018-04-10T13:20:50.866Z,52.20
2018-04-10T13:23:18.481Z,51.80
2018-04-10T13:25:47.096Z,51.80
2018-04-10T13:28:14.667Z,51.80
2018-04-10T13:30:42.201Z,51.40
2018-04-10T13:33:09.778Z,51.20
2018-04-10T13:35:37.314Z,51.10
2018-04-10T13:38:04.890Z,51.30
2018-04-10T13:40:32.446Z,51.50
2018-04-10T13:42:59.990Z,51.80
2018-04-10T13:45:27.573Z,51.90
2018-04-10T13:47:55.135Z,51.90
2018-04-10T13:50:22.677Z,52.50
2018-04-10T13:52:50.296Z,52.20
2018-04-10T13:55:18.028Z,52.40
2018-04-10T13:57:45.789Z,50.80
2018-04-10T14:00:13.372Z,50.80
2018-04-10T14:02:40.919Z,50.90
2018-04-10T14:05:08.522Z,50.10
2018-04-10T14:07:36.072Z,49.10
2018-04-10T14:10:03.647Z,47.90
2018-04-10T14:12:31.213Z,47.60
2018-04-10T14:14:59.534Z,47.50
2018-04-10T14:17:27.072Z,47.50
2018-04-10T14:19:54.588Z,47.90
2018-04-10T14:22:22.157Z,47.70
2018-04-10T14:24:50.495Z,46.30
2018-04-10T14:27:18.129Z,46.20
2018-04-10T14:29:45.660Z,45.70
2018-04-10T14:32:13.971Z,43.90
2018-04-10T14:34:43.585Z,43.80
2018-04-10T14:37:11.145Z,43.10
2018-04-10T14:39:38.710Z,43.40
2018-04-10T14:42:06.243Z,43.10
2018-04-10T14:44:33.841Z,38.70
2018-04-10T14:47:01.470Z,38.40
2018-04-10T14:49:29.019Z,39.40
2018-04-10T14:51:56.561Z,40.70
2018-04-10T14:54:24.253Z,40.80
2018-04-10T14:56:51.812Z,41.10
2018-04-10T14:59:19.420Z,41.30
2018-04-10T15:01:46.960Z,41.30
2018-04-10T15:04:14.518Z,41.30
2018-04-10T15:06:42.089Z,41.00
2018-04-10T15:09:09.639Z,41.30
2018-04-10T15:11:37.228Z,40.90
2018-04-10T15:14:04.753Z,40.80
2018-04-10T15:16:32.329Z,41.20
2018-04-10T15:18:59.877Z,40.90
2018-04-10T15:21:27.490Z,41.20
2018-04-10T15:23:55.106Z,41.20
2018-04-10T15:26:22.638Z,42.40
2018-04-10T15:28:50.193Z,41.80
2018-04-10T15:31:17.745Z,42.80
2018-04-10T15:33:45.377Z,42.60
2018-04-10T15:36:12.909Z,42.20
2018-04-10T15:38:40.509Z,43.10
2018-04-10T15:41:08.052Z,43.40
2018-04-10T15:43:35.641Z,43.80
2018-04-10T15:46:03.212Z,44.70
2018-04-10T15:48:30.768Z,44.70
2018-04-10T15:50:59.090Z,46.40
2018-04-10T15:53:26.706Z,46.10
2018-04-10T15:55:54.308Z,47.20
2018-04-10T15:58:21.862Z,47.60
2018-04-10T16:00:49.416Z,48.30
2018-04-10T16:03:17.001Z,49.50
2018-04-10T16:05:45.360Z,50.00
2018-04-10T16:08:12.953Z,50.00
2018-04-10T16:10:40.620Z,50.40
2018-04-10T16:13:08.213Z,50.70
2018-04-10T16:15:36.353Z,50.60
2018-04-10T16:18:03.856Z,50.30
2018-04-10T16:20:31.485Z,50.20
2018-04-10T16:23:00.281Z,50.00
2018-04-10T16:25:27.879Z,50.60
2018-04-10T16:27:55.578Z,50.80
2018-04-10T16:30:23.174Z,51.00
2018-04-10T16:32:50.730Z,51.20
2018-04-10T16:35:18.295Z,50.60
2018-04-10T16:37:46.083Z,50.90
2018-04-10T16:40:13.733Z,50.80
2018-04-10T16:42:41.293Z,50.80
2018-04-10T16:45:08.901Z,50.80
2018-04-10T16:47:36.440Z,51.00
2018-04-10T16:50:04.764Z,51.40
2018-04-10T16:52:32.360Z,51.40
2018-04-10T16:55:00.720Z,51.60
2018-04-10T16:57:28.358Z,51.50
2018-04-10T16:59:55.918Z,51.70
2018-04-10T17:02:23.521Z,51.90
2018-04-10T17:04:51.134Z,52.20
2018-04-10T17:07:18.712Z,52.70
2018-04-10T17:09:46.291Z,52.80
2018-04-10T17:12:13.911Z,53.00
2018-04-10T17:14:41.489Z,53.40
2018-04-10T17:17:09.107Z,53.40
2018-04-10T17:19:36.655Z,53.90
2018-04-10T17:22:04.205Z,54.20
2018-04-10T17:24:31.808Z,54.50
2018-04-10T17:26:59.383Z,54.70
2018-04-10T17:29:26.958Z,55.20
2018-04-10T17:31:54.748Z,55.50
2018-04-10T17:34:23.395Z,56.00
2018-04-10T17:36:51.034Z,55.90
2018-04-10T17:39:18.654Z,56.40
2018-04-10T17:41:47.023Z,56.90
2018-04-10T17:44:14.601Z,56.80
2018-04-10T17:46:42.285Z,57.10
2018-04-10T17:49:09.864Z,57.30
2018-04-10T17:51:37.479Z,57.70
2018-04-10T17:54:05.026Z,58.00
2018-04-10T17:56:33.751Z,58.20
2018-04-10T17:59:01.381Z,58.10
2018-04-10T18:01:28.934Z,58.40
2018-04-10T18:03:57.366Z,59.70
2018-04-10T18:06:24.984Z,59.10
2018-04-10T18:08:52.680Z,59.40
2018-04-10T18:11:20.298Z,59.80
2018-04-10T18:13:48.612Z,60.40
2018-04-10T18:16:16.215Z,60.30
2018-04-10T18:18:43.879Z,60.70
2018-04-10T18:21:11.609Z,61.10
2018-04-10T18:23:39.212Z,61.60
2018-04-10T18:26:07.535Z,61.90
2018-04-10T18:28:35.352Z,62.00
2018-04-10T18:31:02.981Z,62.30
2018-04-10T18:33:30.634Z,62.30
2018-04-10T18:35:58.335Z,62.50
2018-04-10T18:38:26.048Z,62.60
2018-04-10T18:40:53.612Z,62.80
2018-04-10T18:43:21.270Z,62.90
2018-04-10T18:45:49.733Z,63.20
2018-04-10T18:48:17.327Z,63.30
2018-04-10T18:50:44.999Z,63.20
2018-04-10T18:53:13.239Z,63.40
2018-04-10T18:55:40.838Z,63.40
2018-04-10T18:58:08.945Z,63.30
2018-04-10T19:00:37.062Z,63.30
2018-04-10T19:03:04.801Z,63.90
2018-04-10T19:05:32.588Z,63.00
2018-04-10T19:08:00.323Z,63.10
2018-04-10T19:10:30.194Z,63.90
2018-04-10T19:12:57.893Z,64.20
2018-04-10T19:15:25.573Z,64.70
2018-04-10T19:17:53.657Z,65.20
2018-04-10T19:20:22.990Z,65.30
2018-04-10T19:22:50.795Z,65.40
2018-04-10T19:25:18.622Z,65.70
2018-04-10T19:27:48.392Z,65.90
2018-04-10T19:30:19.805Z,66.30
2018-04-10T19:32:48.519Z,66.20
2018-04-10T19:35:16.812Z,66.10
2018-04-10T19:37:48.195Z,66.40
2018-04-10T19:40:16.081Z,66.30
2018-04-10T19:42:44.461Z,66.30
2018-04-10T19:45:13.094Z,66.30
2018-04-10T19:47:43.310Z,66.40
2018-04-10T19:50:11.300Z,66.20
2018-04-10T19:52:39.530Z,66.40
2018-04-10T19:55:07.721Z,66.20
2018-04-10T19:57:36.364Z,66.30
2018-04-10T20:00:04.279Z,66.60
2018-04-10T20:02:32.069Z,67.20
2018-04-10T20:05:00.405Z,64.00
2018-04-10T20:07:28.029Z,65.00
2018-04-10T20:09:55.931Z,65.70
2018-04-10T20:12:23.894Z,66.00
2018-04-10T20:14:54.857Z,66.10
2018-04-10T20:17:22.666Z,66.20
2018-04-10T20:19:51.056Z,66.60
2018-04-10T20:22:19.643Z,66.20
2018-04-10T20:24:51.075Z,66.20
2018-04-10T20:27:19.175Z,65.30
2018-04-10T20:29:46.988Z,65.30
2018-04-10T20:32:14.555Z,66.20
2018-04-10T20:34:42.217Z,65.80
2018-04-10T20:37:10.301Z,66.20
2018-04-10T20:39:38.472Z,66.30
2018-04-10T20:42:06.196Z,66.60
2018-04-10T20:44:35.546Z,66.70
2018-04-10T20:47:03.252Z,66.90
2018-04-10T20:49:30.816Z,67.10
2018-04-10T20:51:58.420Z,67.10
2018-04-10T20:54:29.858Z,67.20
2018-04-10T20:56:57.832Z,67.60
2018-04-10T20:59:27.056Z,67.70
2018-04-10T21:01:57.372Z,67.90
2018-04-10T21:04:25.544Z,68.30
2018-04-10T21:06:53.889Z,68.20
2018-04-10T21:09:22.125Z,68.00
2018-04-10T21:11:50.827Z,68.00
2018-04-10T21:14:20.182Z,68.20
2018-04-10T21:16:47.790Z,68.10
2018-04-10T21:19:16.749Z,68.50
2018-04-10T21:21:44.592Z,68.80
2018-04-10T21:24:12.186Z,69.40
2018-04-10T21:26:40.002Z,70.00
2018-04-10T21:29:07.568Z,70.80
2018-04-10T21:31:35.254Z,71.40
2018-04-10T21:34:03.023Z,72.10
2018-04-10T21:36:30.658Z,72.50
2018-04-10T21:38:58.444Z,73.00
2018-04-10T21:41:26.426Z,73.30
2018-04-10T21:43:55.042Z,72.90
2018-04-10T21:46:22.941Z,72.70
2018-04-10T21:48:50.614Z,72.80
2018-04-10T21:51:18.181Z,72.60
2018-04-10T21:53:46.621Z,72.60
2018-04-10T21:56:14.251Z,72.60
2018-04-10T21:58:42.019Z,71.90
2018-04-10T22:01:10.456Z,71.40
2018-04-10T22:03:38.691Z,71.10
2018-04-10T22:06:06.324Z,70.80
2018-04-10T22:08:33.937Z,70.30
2018-04-10T22:11:01.512Z,70.40
2018-04-10T22:13:29.059Z,70.10
2018-04-10T22:15:56.704Z,69.90
2018-04-10T22:18:24.280Z,70.10
2018-04-10T22:20:51.998Z,69.90
2018-04-10T22:23:19.614Z,70.00
2018-04-10T22:25:48.992Z,69.80
2018-04-10T22:28:16.587Z,69.50
2018-04-10T22:30:45.206Z,68.60
2018-04-10T22:33:12.837Z,68.60
2018-04-10T22:35:40.498Z,68.30
2018-04-10T22:38:09.237Z,68.10
2018-04-10T22:40:37.562Z,68.00
2018-04-10T22:43:05.349Z,67.80
2018-04-10T22:45:33.338Z,67.70
2018-04-10T22:48:00.935Z,67.50
2018-04-10T22:50:28.498Z,67.60
2018-04-10T22:52:56.124Z,67.30
2018-04-10T22:55:23.746Z,67.00
2018-04-10T22:57:51.324Z,66.90
2018-04-10T23:03:34.898Z,67.30
2018-04-10T23:06:02.485Z,67.60
2018-04-10T23:08:30.829Z,69.20
2018-04-10T23:10:58.798Z,69.20
2018-04-10T23:13:26.340Z,70.20
2018-04-10T23:15:53.926Z,71.00
2018-04-10T23:18:21.464Z,72.40
2018-04-10T23:20:49.059Z,72.30
2018-04-10T23:23:16.635Z,72.30
2018-04-10T23:25:44.219Z,72.30
2018-04-10T23:28:12.053Z,72.30
2018-04-10T23:30:39.604Z,72.60
2018-04-10T23:33:07.162Z,72.20
2018-04-10T23:35:34.697Z,72.20
2018-04-10T23:38:02.266Z,72.20
2018-04-10T23:40:29.803Z,72.20
2018-04-10T23:42:57.323Z,72.20
2018-04-10T23:45:24.853Z,72.40
2018-04-10T23:47:52.512Z,72.60
2018-04-10T23:50:20.806Z,72.40
2018-04-10T23:52:48.429Z,72.50
2018-04-10T23:55:15.950Z,72.60
2018-04-10T23:57:44.225Z,73.30
